Time;durP1;ratioP1;P1;durP2;ratioP2;P2;SDS_P1;SDS_P2;PMS_P1;PMS_P2;Temp;Humidity;BMP_temperature;BMP_pressure;BME280_temperature;BME280_humidity;BME280_pressure;Samples;Min_cycle;Max_cycle;Signal;HPM_P1;HPM_P2
2021/12/06 00:01:07;;;;;;;19.65;12.23;;;;;;;;;;5013506;28;20148;-63
2021/12/06 00:03:39;;;;;;;21.50;12.07;;;;;;;;;;5013245;28;20054;-63
2021/12/06 00:06:07;;;;;;;14.38;8.40;;;;;;;;;;5013428;28;20061;-63
2021/12/06 00:08:34;;;;;;;16.33;8.80;;;;;;;;;;5013285;28;20061;-63
2021/12/06 00:11:07;;;;;;;15.82;9.77;;;;;;;;;;5013314;28;20110;-63
2021/12/06 00:13:35;;;;;;;12.38;8.02;;;;;;;;;;5013265;28;20072;-62
2021/12/06 00:16:06;;;;;;;15.68;7.75;;;;;;;;;;5013315;28;20072;-63
2021/12/06 00:18:33;;;;;;;14.43;7.65;;;;;;;;;;5013229;28;20058;-62
2021/12/06 00:21:00;;;;;;;14.75;8.50;;;;;;;;;;5013184;28;20046;-62
2021/12/06 00:23:28;;;;;;;14.52;8.85;;;;;;;;;;5022403;23;20049;-69
2021/12/06 00:25:56;;;;;;;15.82;8.98;;;;;;;;;;5012706;28;20517;-68
2021/12/06 00:28:25;;;;;;;15.38;8.50;;;;;;;;;;5012389;28;20057;-67
2021/12/06 00:30:52;;;;;;;16.00;9.23;;;;;;;;;;5012961;28;20470;-67
2021/12/06 00:33:20;;;;;;;14.73;8.90;;;;;;;;;;5012744;28;20401;-66
2021/12/06 00:35:47;;;;;;;12.27;8.05;;;;;;;;;;5012847;28;20057;-67
2021/12/06 00:38:14;;;;;;;15.25;8.70;;;;;;;;;;5012322;28;20461;-68
2021/12/06 00:40:44;;;;;;;17.30;9.95;;;;;;;;;;5012796;28;20128;-67
2021/12/06 00:43:11;;;;;;;14.25;8.32;;;;;;;;;;5012586;28;20050;-67
2021/12/06 00:45:39;;;;;;;14.15;8.65;;;;;;;;;;5012508;28;20502;-67
2021/12/06 00:48:07;;;;;;;13.38;9.05;;;;;;;;;;5012322;28;20045;-67
2021/12/06 00:50:36;;;;;;;12.18;8.60;;;;;;;;;;5012414;28;20053;-67
2021/12/06 00:53:03;;;;;;;14.23;8.52;;;;;;;;;;5012243;28;20053;-66
2021/12/06 00:55:30;;;;;;;12.82;8.80;;;;;;;;;;5012591;28;20054;-66
2021/12/06 00:57:57;;;;;;;14.63;9.63;;;;;;;;;;5012176;28;20056;-66
2021/12/06 01:00:33;;;;;;;14.55;8.65;;;;;;;;;;5012371;28;20054;-66
2021/12/06 01:03:03;;;;;;;15.38;9.32;;;;;;;;;;5011989;28;20053;-66
2021/12/06 01:05:31;;;;;;;14.25;9.65;;;;;;;;;;5012308;28;20070;-67
2021/12/06 01:07:58;;;;;;;14.65;9.65;;;;;;;;;;5012103;28;20096;-67
2021/12/06 01:10:27;;;;;;;15.68;8.93;;;;;;;;;;5012302;28;20499;-66
2021/12/06 01:12:54;;;;;;;13.82;8.60;;;;;;;;;;5012133;28;20057;-67
2021/12/06 01:15:21;;;;;;;16.73;10.05;;;;;;;;;;5012561;28;20507;-67
2021/12/06 01:17:49;;;;;;;17.42;10.38;;;;;;;;;;5011932;28;20050;-66
2021/12/06 01:20:24;;;;;;;16.83;11.45;;;;;;;;;;5012254;28;20065;-67
2021/12/06 01:22:56;;;;;;;20.55;12.55;;;;;;;;;;5012251;28;20080;-67
2021/12/06 01:25:31;;;;;;;20.58;13.52;;;;;;;;;;5012136;28;20053;-67
2021/12/06 01:30:54;;;;;;;20.73;12.73;;;;;;;;;;5009842;28;20407;-67
2021/12/06 01:39:12;;;;;;;21.27;11.73;;;;;;;;;;5011700;28;20057;-67
2021/12/06 01:41:42;;;;;;;23.83;13.43;;;;;;;;;;5011710;28;20065;-68
2021/12/06 01:44:12;;;;;;;24.50;13.43;;;;;;;;;;5011933;28;20414;-68
2021/12/06 01:46:43;;;;;;;24.00;12.70;;;;;;;;;;5011975;28;20542;-68
2021/12/06 01:49:10;;;;;;;22.20;12.82;;;;;;;;;;5011725;28;20757;-67
2021/12/06 01:51:39;;;;;;;26.63;12.88;;;;;;;;;;5011804;28;20050;-67
2021/12/06 01:54:08;;;;;;;25.15;13.35;;;;;;;;;;5011777;28;20457;-68
2021/12/06 01:56:35;;;;;;;26.13;12.65;;;;;;;;;;5011844;28;20069;-68
2021/12/06 01:59:02;;;;;;;22.80;12.65;;;;;;;;;;5011633;28;20061;-68
2021/12/06 02:01:29;;;;;;;22.63;13.13;;;;;;;;;;5011729;28;20057;-67
2021/12/06 02:03:56;;;;;;;23.63;13.10;;;;;;;;;;5011658;28;20056;-68
2021/12/06 02:06:23;;;;;;;25.40;12.07;;;;;;;;;;5011809;28;20053;-68
2021/12/06 02:08:51;;;;;;;25.60;13.00;;;;;;;;;;5011218;28;20054;-67
2021/12/06 02:11:19;;;;;;;26.65;13.00;;;;;;;;;;5011502;28;20061;-68
2021/12/06 02:13:47;;;;;;;24.52;13.18;;;;;;;;;;5013488;28;20065;-68
2021/12/06 02:16:18;;;;;;;24.65;12.10;;;;;;;;;;5015370;28;20485;-67
2021/12/06 02:18:49;;;;;;;24.48;12.82;;;;;;;;;;5015017;28;20061;-67
2021/12/06 02:21:25;;;;;;;28.50;13.00;;;;;;;;;;5015831;28;20065;-67
2021/12/06 02:23:53;;;;;;;25.73;12.13;;;;;;;;;;5014920;28;20108;-68
2021/12/06 02:26:21;;;;;;;25.80;12.32;;;;;;;;;;5015386;28;20479;-70
2021/12/06 02:28:49;;;;;;;22.52;11.38;;;;;;;;;;5014519;28;20054;-69
2021/12/06 02:31:17;;;;;;;22.13;11.48;;;;;;;;;;5014859;28;20049;-69
2021/12/06 02:33:48;;;;;;;25.73;12.98;;;;;;;;;;5014871;28;20073;-69
2021/12/06 02:36:16;;;;;;;24.63;12.15;;;;;;;;;;5015276;28;20050;-69
2021/12/06 02:38:44;;;;;;;21.35;12.07;;;;;;;;;;5014470;28;20057;-69
2021/12/06 02:41:11;;;;;;;20.83;11.02;;;;;;;;;;5014855;28;20537;-68
2021/12/06 02:43:40;;;;;;;23.25;11.45;;;;;;;;;;5014725;28;20061;-69
2021/12/06 02:46:08;;;;;;;23.55;12.07;;;;;;;;;;5014627;28;20052;-69
2021/12/06 02:48:35;;;;;;;21.75;11.40;;;;;;;;;;5014234;28;20050;-69
2021/12/06 02:51:05;;;;;;;26.42;12.98;;;;;;;;;;5014330;28;20054;-69
2021/12/06 02:53:35;;;;;;;27.35;13.38;;;;;;;;;;5014801;28;20058;-69
2021/12/06 02:56:17;;;;;;;24.38;12.48;;;;;;;;;;5014364;28;20057;-69
2021/12/06 02:58:56;;;;;;;24.05;11.68;;;;;;;;;;5014006;28;20542;-69
2021/12/06 03:01:25;;;;;;;20.88;10.95;;;;;;;;;;5014344;28;20248;-69
2021/12/06 03:03:53;;;;;;;21.77;11.00;;;;;;;;;;5014428;28;20050;-68
2021/12/06 03:06:20;;;;;;;19.08;10.32;;;;;;;;;;5014015;28;20419;-68
2021/12/06 03:08:54;;;;;;;21.98;11.15;;;;;;;;;;5013942;28;20053;-69
2021/12/06 03:11:25;;;;;;;19.77;10.65;;;;;;;;;;5013944;28;20069;-69
2021/12/06 03:13:52;;;;;;;21.92;11.35;;;;;;;;;;5014091;28;20057;-69
2021/12/06 03:16:20;;;;;;;19.95;10.05;;;;;;;;;;5014134;28;20423;-69
2021/12/06 03:18:48;;;;;;;19.35;11.13;;;;;;;;;;5013649;28;20053;-69
2021/12/06 03:21:16;;;;;;;21.98;11.93;;;;;;;;;;5014152;28;20403;-69
2021/12/06 03:23:43;;;;;;;24.08;12.25;;;;;;;;;;5013755;28;20073;-69
2021/12/06 03:26:10;;;;;;;23.17;12.57;;;;;;;;;;5013741;28;20054;-69
2021/12/06 03:28:42;;;;;;;20.67;10.63;;;;;;;;;;5013728;28;20057;-69
2021/12/06 03:31:09;;;;;;;18.25;11.02;;;;;;;;;;5013508;28;20513;-69
2021/12/06 03:33:37;;;;;;;19.15;10.57;;;;;;;;;;5013914;28;20053;-69
2021/12/06 03:36:06;;;;;;;20.65;11.40;;;;;;;;;;5013725;28;20392;-69
2021/12/06 03:38:33;;;;;;;22.42;11.20;;;;;;;;;;5013259;28;20046;-69
2021/12/06 03:41:00;;;;;;;20.08;10.68;;;;;;;;;;5013418;28;20057;-69
2021/12/06 03:43:27;;;;;;;22.98;12.05;;;;;;;;;;5013286;28;20053;-69
2021/12/06 03:45:55;;;;;;;23.25;12.15;;;;;;;;;;5013317;28;20510;-69
2021/12/06 03:48:22;;;;;;;25.00;12.85;;;;;;;;;;5013285;28;20507;-69
2021/12/06 03:50:49;;;;;;;25.98;12.95;;;;;;;;;;5013305;28;20065;-68
2021/12/06 03:53:17;;;;;;;27.45;13.40;;;;;;;;;;5013495;28;20403;-69
2021/12/06 03:55:44;;;;;;;26.42;13.43;;;;;;;;;;5013192;28;20093;-68
2021/12/06 03:58:12;;;;;;;24.10;13.32;;;;;;;;;;5013131;28;20406;-69
2021/12/06 04:00:39;;;;;;;25.42;12.90;;;;;;;;;;5013196;28;20053;-69
2021/12/06 04:03:08;;;;;;;21.58;11.48;;;;;;;;;;5013077;28;20049;-69
2021/12/06 04:05:35;;;;;;;24.00;11.90;;;;;;;;;;5012986;28;20057;-69
2021/12/06 04:08:02;;;;;;;25.13;12.70;;;;;;;;;;5013118;28;20061;-69
2021/12/06 04:10:29;;;;;;;27.60;13.65;;;;;;;;;;5012920;28;20491;-70
2021/12/06 04:12:58;;;;;;;24.98;12.48;;;;;;;;;;5013023;28;20054;-68
2021/12/06 04:15:25;;;;;;;24.33;11.98;;;;;;;;;;5013165;28;20084;-68
2021/12/06 04:17:52;;;;;;;25.13;12.18;;;;;;;;;;5012823;28;20056;-68
2021/12/06 04:20:20;;;;;;;29.75;13.52;;;;;;;;;;5013373;28;20064;-68
2021/12/06 04:22:47;;;;;;;24.98;13.38;;;;;;;;;;5013310;28;20049;-68
2021/12/06 04:25:16;;;;;;;29.00;14.52;;;;;;;;;;5013309;28;20057;-69
2021/12/06 04:27:50;;;;;;;26.42;13.73;;;;;;;;;;5013068;28;20470;-69
2021/12/06 04:30:17;;;;;;;26.45;13.20;;;;;;;;;;5013066;28;20053;-69
2021/12/06 04:32:44;;;;;;;29.05;14.13;;;;;;;;;;5012571;28;20518;-69
2021/12/06 04:35:11;;;;;;;27.85;14.70;;;;;;;;;;5013086;28;20052;-68
2021/12/06 04:37:40;;;;;;;28.30;13.25;;;;;;;;;;5012799;28;20521;-68
2021/12/06 04:40:09;;;;;;;27.88;13.60;;;;;;;;;;5013179;28;20056;-69
2021/12/06 04:42:36;;;;;;;26.50;12.63;;;;;;;;;;5013071;28;20423;-68
2021/12/06 04:45:04;;;;;;;32.03;14.85;;;;;;;;;;5012687;28;20061;-68
2021/12/06 04:47:31;;;;;;;29.55;13.68;;;;;;;;;;5012223;28;20049;-69
2021/12/06 04:49:58;;;;;;;33.45;14.55;;;;;;;;;;5012539;28;20050;-69
2021/12/06 04:52:25;;;;;;;34.10;15.43;;;;;;;;;;5012449;28;20435;-69
2021/12/06 04:54:59;;;;;;;29.52;14.75;;;;;;;;;;5012438;28;20058;-69
2021/12/06 04:57:29;;;;;;;29.85;13.77;;;;;;;;;;5012216;28;20054;-69
2021/12/06 04:59:58;;;;;;;;;;;;;;;;;;5013012;28;20727;-69
2021/12/06 05:02:28;;;;;;;30.38;12.90;;;;;;;;;;5012145;28;19922;-69
2021/12/06 05:05:07;;;;;;;32.13;14.38;;;;;;;;;;5012334;28;20061;-69
2021/12/06 05:07:37;;;;;;;31.27;14.00;;;;;;;;;;5011952;28;20045;-69
2021/12/06 05:10:08;;;;;;;31.65;14.55;;;;;;;;;;5012092;28;20081;-69
2021/12/06 05:12:35;;;;;;;31.30;13.68;;;;;;;;;;5012069;28;20145;-69
2021/12/06 05:15:04;;;;;;;32.40;14.40;;;;;;;;;;5012281;28;20510;-69
2021/12/06 05:17:31;;;;;;;35.33;14.18;;;;;;;;;;5011814;28;20049;-69
2021/12/06 05:19:58;;;;;;;33.55;14.55;;;;;;;;;;5012145;28;20388;-69
2021/12/06 05:22:25;;;;;;;34.40;14.07;;;;;;;;;;5011923;28;20058;-69
2021/12/06 05:24:52;;;;;;;29.98;14.27;;;;;;;;;;5011993;28;20054;-69
2021/12/06 05:27:27;;;;;;;31.80;14.48;;;;;;;;;;5011891;28;20054;-69
2021/12/06 05:29:58;;;;;;;32.90;14.15;;;;;;;;;;5011998;28;20058;-69
2021/12/06 05:32:27;;;;;;;35.15;14.25;;;;;;;;;;5012107;28;20085;-68
2021/12/06 05:35:01;;;;;;;29.63;13.85;;;;;;;;;;5012236;28;20406;-69
2021/12/06 05:37:29;;;;;;;36.50;15.73;;;;;;;;;;5011849;28;20065;-69
2021/12/06 05:39:56;;;;;;;32.72;14.18;;;;;;;;;;5012247;28;20065;-68
2021/12/06 05:42:26;;;;;;;36.00;16.35;;;;;;;;;;5011629;28;20057;-69
2021/12/06 05:44:53;;;;;;;34.35;15.45;;;;;;;;;;5011872;28;20379;-67
2021/12/06 05:47:21;;;;;;;33.03;15.02;;;;;;;;;;5011704;28;20046;-69
2021/12/06 05:49:48;;;;;;;31.27;15.00;;;;;;;;;;5015282;28;20056;-69
2021/12/06 05:52:15;;;;;;;39.38;17.50;;;;;;;;;;5015439;28;20050;-69
2021/12/06 05:54:41;;;;;;;35.22;16.38;;;;;;;;;;5015532;28;20053;-69
2021/12/06 05:57:11;;;;;;;33.58;16.23;;;;;;;;;;5015323;28;20057;-69
2021/12/06 05:59:40;;;;;;;33.72;16.50;;;;;;;;;;5015389;28;20054;-69
2021/12/06 06:02:07;;;;;;;30.80;15.77;;;;;;;;;;5015246;28;20054;-68
2021/12/06 06:04:35;;;;;;;30.52;14.98;;;;;;;;;;5015508;28;20127;-69
2021/12/06 06:07:03;;;;;;;28.65;15.20;;;;;;;;;;5015278;28;20057;-69
2021/12/06 06:09:29;;;;;;;33.00;15.80;;;;;;;;;;5015130;28;20495;-69
2021/12/06 06:11:57;;;;;;;27.73;13.75;;;;;;;;;;5014922;28;20050;-69
2021/12/06 06:14:24;;;;;;;28.85;14.05;;;;;;;;;;5015228;28;20056;-69
2021/12/06 06:16:53;;;;;;;28.60;14.90;;;;;;;;;;5015132;28;20046;-69
2021/12/06 06:19:22;;;;;;;33.90;15.23;;;;;;;;;;5015127;28;20068;-69
2021/12/06 06:21:50;;;;;;;34.60;16.15;;;;;;;;;;5015114;28;20419;-70
2021/12/06 06:24:17;;;;;;;32.97;14.90;;;;;;;;;;5020585;22;20379;-66
2021/12/06 06:26:44;;;;;;;28.52;13.43;;;;;;;;;;4995099;28;20059;-67
2021/12/06 06:29:12;;;;;;;31.42;15.38;;;;;;;;;;4995341;28;20046;-65
2021/12/06 06:31:40;;;;;;;32.67;14.93;;;;;;;;;;4995009;28;20050;-65
2021/12/06 06:34:09;;;;;;;32.53;16.08;;;;;;;;;;4995235;28;20105;-66
2021/12/06 06:36:36;;;;;;;33.53;15.13;;;;;;;;;;4995010;28;20490;-66
2021/12/06 06:39:05;;;;;;;33.13;15.38;;;;;;;;;;4995001;28;20050;-66
2021/12/06 06:41:32;;;;;;;36.20;14.48;;;;;;;;;;4995165;28;20125;-67
2021/12/06 06:43:59;;;;;;;31.48;14.40;;;;;;;;;;4995466;28;20530;-66
2021/12/06 06:46:26;;;;;;;33.13;15.05;;;;;;;;;;4995417;28;20054;-66
2021/12/06 06:48:54;;;;;;;33.55;14.07;;;;;;;;;;4995045;28;20049;-66
2021/12/06 06:51:23;;;;;;;36.10;16.20;;;;;;;;;;4995255;28;20521;-66
2021/12/06 06:53:50;;;;;;;36.80;15.32;;;;;;;;;;4994701;28;20056;-66
2021/12/06 06:56:17;;;;;;;30.08;14.82;;;;;;;;;;4994747;28;20047;-66
2021/12/06 06:58:45;;;;;;;28.48;14.68;;;;;;;;;;4994840;28;20054;-67
2021/12/06 07:01:12;;;;;;;30.58;13.80;;;;;;;;;;4995063;28;20058;-67
2021/12/06 07:03:39;;;;;;;29.48;14.48;;;;;;;;;;4994693;28;20129;-67
2021/12/06 07:06:06;;;;;;;31.48;13.32;;;;;;;;;;4994733;28;20182;-65
2021/12/06 07:08:34;;;;;;;36.63;15.05;;;;;;;;;;4994436;28;20050;-66
2021/12/06 07:11:01;;;;;;;34.83;16.55;;;;;;;;;;4994300;28;20050;-66
2021/12/06 07:13:29;;;;;;;29.92;13.32;;;;;;;;;;4994440;28;20470;-66
2021/12/06 07:15:56;;;;;;;29.30;14.50;;;;;;;;;;4994513;28;20511;-66
2021/12/06 07:18:23;;;;;;;35.72;15.88;;;;;;;;;;4994357;28;20054;-66
2021/12/06 07:20:50;;;;;;;31.10;13.52;;;;;;;;;;4994433;28;20056;-66
2021/12/06 07:23:17;;;;;;;32.15;13.85;;;;;;;;;;4994082;28;20053;-66
2021/12/06 07:25:45;;;;;;;34.35;15.00;;;;;;;;;;4994066;28;20053;-67
2021/12/06 07:28:12;;;;;;;33.58;16.27;;;;;;;;;;4993970;28;20052;-66
2021/12/06 07:30:39;;;;;;;30.95;15.02;;;;;;;;;;4994233;28;20046;-66
2021/12/06 07:33:06;;;;;;;33.42;14.48;;;;;;;;;;4994204;28;20492;-66
2021/12/06 07:35:34;;;;;;;31.30;15.13;;;;;;;;;;4994289;28;20526;-66
2021/12/06 07:38:03;;;;;;;27.30;13.18;;;;;;;;;;4993724;28;20167;-66
2021/12/06 07:40:31;;;;;;;29.33;13.77;;;;;;;;;;4994074;28;20050;-67
2021/12/06 07:42:59;;;;;;;26.27;13.27;;;;;;;;;;4993940;28;20046;-65
2021/12/06 07:45:26;;;;;;;34.85;15.25;;;;;;;;;;4993918;28;20054;-66
2021/12/06 07:47:53;;;;;;;29.20;14.95;;;;;;;;;;4993216;28;20129;-66
2021/12/06 07:50:22;;;;;;;34.30;16.25;;;;;;;;;;4987745;28;20046;-66
2021/12/06 07:52:51;;;;;;;32.95;15.18;;;;;;;;;;4981773;28;20050;-66
2021/12/06 07:55:19;;;;;;;31.10;15.05;;;;;;;;;;4993659;28;20515;-66
2021/12/06 07:57:47;;;;;;;33.45;15.32;;;;;;;;;;4988634;28;20488;-66
2021/12/06 08:00:24;;;;;;;28.05;14.00;;;;;;;;;;4983610;28;20492;-66
2021/12/06 08:02:51;;;;;;;32.10;13.75;;;;;;;;;;4983352;28;20046;-66
2021/12/06 08:05:30;;;;;;;30.25;14.65;;;;;;;;;;4982639;28;20509;-65
2021/12/06 08:07:58;;;;;;;28.38;14.35;;;;;;;;;;4995146;28;20046;-66
2021/12/06 08:10:25;;;;;;;33.60;14.82;;;;;;;;;;5006502;28;20046;-66
2021/12/06 08:12:52;;;;;;;31.48;14.32;;;;;;;;;;5007005;28;20077;-66
2021/12/06 08:15:21;;;;;;;31.55;15.90;;;;;;;;;;5006964;28;20047;-66
2021/12/06 08:17:48;;;;;;;37.75;16.13;;;;;;;;;;5006841;28;20415;-66
2021/12/06 08:20:15;;;;;;;40.42;18.73;;;;;;;;;;5006173;28;20422;-66
2021/12/06 08:22:42;;;;;;;34.92;17.80;;;;;;;;;;5007086;28;20049;-66
2021/12/06 08:25:12;;;;;;;35.28;16.55;;;;;;;;;;5006841;28;20050;-66
2021/12/06 08:27:39;;;;;;;35.70;14.85;;;;;;;;;;5006511;28;20315;-66
2021/12/06 08:30:08;;;;;;;30.63;13.90;;;;;;;;;;5005064;28;20061;-66
2021/12/06 08:32:36;;;;;;;33.55;14.98;;;;;;;;;;5006384;28;20120;-66
2021/12/06 08:35:04;;;;;;;34.47;15.35;;;;;;;;;;5006974;28;20457;-66
2021/12/06 08:37:31;;;;;;;27.50;13.27;;;;;;;;;;5007169;28;20045;-66
2021/12/06 08:39:58;;;;;;;40.10;15.93;;;;;;;;;;5006927;28;20054;-66
2021/12/06 08:42:25;;;;;;;32.90;13.95;;;;;;;;;;5007310;28;20045;-67
2021/12/06 08:44:53;;;;;;;32.53;13.98;;;;;;;;;;5007063;28;20073;-67
2021/12/06 08:47:20;;;;;;;32.85;13.90;;;;;;;;;;5007373;28;20526;-67
2021/12/06 08:49:50;;;;;;;30.58;13.90;;;;;;;;;;5006693;28;20133;-67
2021/12/06 08:52:17;;;;;;;32.42;13.88;;;;;;;;;;5007895;28;20046;-66
2021/12/06 08:54:44;;;;;;;33.58;15.73;;;;;;;;;;5009630;28;20038;-64
2021/12/06 08:57:11;;;;;;;30.77;14.52;;;;;;;;;;5006579;28;20042;-65
2021/12/06 08:59:39;;;;;;;29.95;13.82;;;;;;;;;;5005774;28;20042;-64
2021/12/06 09:02:06;;;;;;;32.17;13.63;;;;;;;;;;5006163;28;20046;-65
2021/12/06 09:04:37;;;;;;;39.08;16.55;;;;;;;;;;5006645;28;20096;-65
2021/12/06 09:07:11;;;;;;;37.35;16.40;;;;;;;;;;5005944;28;20057;-65
2021/12/06 09:09:45;;;;;;;35.28;15.93;;;;;;;;;;5006418;28;20565;-65
2021/12/06 09:12:13;;;;;;;38.33;14.80;;;;;;;;;;5005962;28;20056;-65
2021/12/06 09:14:40;;;;;;;37.38;16.35;;;;;;;;;;5006177;28;20495;-65
2021/12/06 09:17:07;;;;;;;39.90;17.70;;;;;;;;;;5006669;28;20046;-66
2021/12/06 09:19:34;;;;;;;38.85;17.33;;;;;;;;;;5006880;28;20411;-65
2021/12/06 09:22:01;;;;;;;46.60;17.90;;;;;;;;;;5005456;28;20050;-64
2021/12/06 09:24:30;;;;;;;44.85;16.88;;;;;;;;;;5009936;28;20042;-65
2021/12/06 09:26:57;;;;;;;43.08;18.00;;;;;;;;;;5010894;28;20064;-65
2021/12/06 09:29:24;;;;;;;38.90;17.20;;;;;;;;;;5010406;28;20395;-65
2021/12/06 09:31:52;;;;;;;41.30;16.08;;;;;;;;;;5009862;28;20508;-65
2021/12/06 09:34:19;;;;;;;42.58;17.38;;;;;;;;;;5010502;28;20519;-66
2021/12/06 09:36:47;;;;;;;42.38;17.70;;;;;;;;;;5009507;28;20056;-68
2021/12/06 09:39:14;;;;;;;35.78;16.38;;;;;;;;;;5009761;28;20042;-66
2021/12/06 09:41:43;;;;;;;40.55;16.98;;;;;;;;;;5009811;28;20083;-65
2021/12/06 09:44:11;;;;;;;33.53;15.93;;;;;;;;;;5010328;28;20053;-65
2021/12/06 09:46:39;;;;;;;47.17;20.10;;;;;;;;;;5010127;28;20057;-63
2021/12/06 09:49:08;;;;;;;43.97;18.73;;;;;;;;;;5009608;28;20042;-67
2021/12/06 09:51:37;;;;;;;44.83;19.85;;;;;;;;;;5009925;28;20045;-65
2021/12/06 09:54:05;;;;;;;45.55;18.27;;;;;;;;;;5009275;28;20046;-65
2021/12/06 09:56:34;;;;;;;39.78;17.33;;;;;;;;;;5008385;28;20212;-65
2021/12/06 09:59:06;;;;;;;43.92;18.30;;;;;;;;;;5009430;28;20507;-65
2021/12/06 10:01:36;;;;;;;42.97;17.63;;;;;;;;;;5008700;28;20049;-66
2021/12/06 10:04:03;;;;;;;40.07;17.47;;;;;;;;;;5008665;28;20176;-65
2021/12/06 10:06:31;;;;;;;46.35;16.48;;;;;;;;;;5009452;28;20440;-65
2021/12/06 10:09:00;;;;;;;35.15;14.32;;;;;;;;;;5008865;28;20107;-65
2021/12/06 10:11:28;;;;;;;46.25;17.42;;;;;;;;;;5009256;28;20053;-66
2021/12/06 10:13:56;;;;;;;40.65;17.40;;;;;;;;;;5009441;28;20135;-65
2021/12/06 10:16:25;;;;;;;34.03;14.25;;;;;;;;;;5008366;28;20060;-65
2021/12/06 10:18:52;;;;;;;35.60;16.70;;;;;;;;;;5008664;28;20213;-65
2021/12/06 10:21:23;;;;;;;33.85;13.60;;;;;;;;;;5008531;28;20422;-66
2021/12/06 10:23:51;;;;;;;34.58;14.73;;;;;;;;;;5008524;28;20045;-66
2021/12/06 10:26:21;;;;;;;36.92;16.67;;;;;;;;;;5009284;28;20481;-66
2021/12/06 10:28:48;;;;;;;37.40;15.25;;;;;;;;;;5008318;28;20050;-65
2021/12/06 10:31:16;;;;;;;33.92;14.50;;;;;;;;;;5008702;28;20430;-66
2021/12/06 10:33:47;;;;;;;34.33;14.75;;;;;;;;;;5008153;28;20046;-66
2021/12/06 10:36:17;;;;;;;31.48;14.15;;;;;;;;;;5009118;28;20052;-65
2021/12/06 10:38:47;;;;;;;30.60;13.93;;;;;;;;;;5009003;28;20400;-66
2021/12/06 10:41:16;;;;;;;37.70;15.98;;;;;;;;;;5008783;28;20077;-66
2021/12/06 10:43:53;;;;;;;34.90;14.07;;;;;;;;;;5008478;28;20050;-65
2021/12/06 10:46:20;;;;;;;41.30;17.58;;;;;;;;;;5008730;28;20050;-66
2021/12/06 10:48:52;;;;;;;37.97;16.35;;;;;;;;;;5008299;28;20080;-65
2021/12/06 10:51:20;;;;;;;35.70;15.73;;;;;;;;;;5008484;28;20061;-65
2021/12/06 10:53:57;;;;;;;40.33;17.40;;;;;;;;;;5007842;28;20109;-65
2021/12/06 10:56:33;;;;;;;35.65;15.43;;;;;;;;;;5008668;28;20503;-66
2021/12/06 10:59:05;;;;;;;37.60;16.92;;;;;;;;;;5007958;28;20053;-65
2021/12/06 11:01:34;;;;;;;38.20;15.82;;;;;;;;;;5007289;28;20053;-66
2021/12/06 11:04:04;;;;;;;42.90;16.63;;;;;;;;;;5007498;28;20157;-65
2021/12/06 11:06:36;;;;;;;43.10;18.52;;;;;;;;;;5008875;28;20042;-65
2021/12/06 11:09:06;;;;;;;40.92;16.48;;;;;;;;;;5007585;28;21018;-65
2021/12/06 11:11:35;;;;;;;43.25;17.83;;;;;;;;;;5007615;28;20050;-66
2021/12/06 11:14:06;;;;;;;39.78;16.48;;;;;;;;;;5007958;28;20104;-66
2021/12/06 11:16:34;;;;;;;34.80;16.25;;;;;;;;;;5008071;28;20060;-66
2021/12/06 11:19:06;;;;;;;35.28;15.40;;;;;;;;;;5008125;28;20060;-65
2021/12/06 11:21:38;;;;;;;37.72;15.63;;;;;;;;;;5007657;28;20053;-66
2021/12/06 11:24:12;;;;;;;36.70;16.65;;;;;;;;;;5007457;28;20108;-65
2021/12/06 11:26:42;;;;;;;40.92;17.48;;;;;;;;;;5007329;28;20042;-65
2021/12/06 11:29:14;;;;;;;42.58;17.42;;;;;;;;;;5007385;28;20054;-65
2021/12/06 11:31:43;;;;;;;40.08;16.55;;;;;;;;;;5007715;28;20490;-66
2021/12/06 11:34:12;;;;;;;41.05;17.63;;;;;;;;;;5007765;28;20053;-68
2021/12/06 11:36:43;;;;;;;40.35;16.75;;;;;;;;;;5007499;28;20046;-66
2021/12/06 11:39:13;;;;;;;41.63;18.25;;;;;;;;;;5009331;28;20451;-67
2021/12/06 11:41:43;;;;;;;36.33;16.70;;;;;;;;;;5007844;28;20057;-66
2021/12/06 11:44:17;;;;;;;34.67;16.27;;;;;;;;;;5009583;28;20045;-66
2021/12/06 11:46:45;;;;;;;39.55;16.15;;;;;;;;;;5007094;28;20034;-66
2021/12/06 11:49:27;;;;;;;38.33;16.58;;;;;;;;;;5007728;28;20458;-69
2021/12/06 11:51:55;;;;;;;37.55;16.98;;;;;;;;;;5009001;28;20115;-68
2021/12/06 11:54:22;;;;;;;40.47;17.27;;;;;;;;;;5008507;28;20046;-68
2021/12/06 11:56:51;;;;;;;38.85;16.95;;;;;;;;;;5007465;28;20482;-64
2021/12/06 11:59:20;;;;;;;38.00;15.85;;;;;;;;;;5007539;28;20525;-66
2021/12/06 12:01:51;;;;;;;36.88;17.23;;;;;;;;;;5006491;28;20092;-65
2021/12/06 12:04:21;;;;;;;36.42;16.33;;;;;;;;;;5007509;28;20056;-65
2021/12/06 12:06:51;;;;;;;37.47;15.65;;;;;;;;;;5006333;28;20049;-64
2021/12/06 12:09:23;;;;;;;40.20;17.40;;;;;;;;;;5006649;28;20491;-64
2021/12/06 12:12:03;;;;;;;40.05;16.90;;;;;;;;;;5006699;28;20367;-64
2021/12/06 12:14:32;;;;;;;40.43;17.07;;;;;;;;;;5006739;28;20068;-65
2021/12/06 12:17:01;;;;;;;35.67;15.57;;;;;;;;;;5006712;28;20105;-65
2021/12/06 12:19:29;;;;;;;35.42;15.80;;;;;;;;;;5006411;28;20049;-66
2021/12/06 12:21:57;;;;;;;40.70;18.95;;;;;;;;;;5006185;28;20050;-66
2021/12/06 12:24:24;;;;;;;33.53;15.13;;;;;;;;;;5006997;28;20093;-65
2021/12/06 12:27:01;;;;;;;31.05;15.98;;;;;;;;;;5005134;28;20053;-65
2021/12/06 12:29:29;;;;;;;31.63;14.15;;;;;;;;;;5006158;28;20601;-65
2021/12/06 12:31:58;;;;;;;33.15;15.20;;;;;;;;;;5013335;23;20053;-78
2021/12/06 12:34:27;;;;;;;33.78;14.20;;;;;;;;;;4990386;28;20096;-77
2021/12/06 12:36:54;;;;;;;39.08;15.15;;;;;;;;;;4988423;28;20084;-79
2021/12/06 12:39:23;;;;;;;28.75;15.18;;;;;;;;;;4988681;28;20042;-77
2021/12/06 12:41:53;;;;;;;32.15;14.05;;;;;;;;;;4989404;28;20053;-77
2021/12/06 12:44:21;;;;;;;33.97;14.80;;;;;;;;;;4987499;28;20042;-77
2021/12/06 12:46:50;;;;;;;30.83;14.10;;;;;;;;;;4988517;28;20133;-76
2021/12/06 12:49:19;;;;;;;35.08;14.57;;;;;;;;;;4987793;28;20505;-77
2021/12/06 12:51:49;;;;;;;30.38;12.75;;;;;;;;;;4988854;28;20105;-77
2021/12/06 12:54:19;;;;;;;29.48;12.80;;;;;;;;;;4987348;28;20097;-77
2021/12/06 12:56:51;;;;;;;35.10;13.80;;;;;;;;;;4987086;28;20058;-77
2021/12/06 12:59:25;;;;;;;33.17;13.65;;;;;;;;;;4987885;28;20101;-77
2021/12/06 13:02:24;;;;;;;31.58;13.50;;;;;;;;;;4988126;28;20084;-77
2021/12/06 13:05:28;;;;;;;32.63;14.38;;;;;;;;;;4990056;28;20054;-77
2021/12/06 13:08:09;;;;;;;33.90;14.25;;;;;;;;;;4987560;28;20057;-77
2021/12/06 13:10:54;;;;;;;35.22;14.68;;;;;;;;;;4987218;28;20533;-77
2021/12/06 13:13:40;;;;;;;38.83;16.73;;;;;;;;;;4986232;28;20590;-77
2021/12/06 13:16:25;;;;;;;33.45;14.23;;;;;;;;;;4988540;28;20046;-77
2021/12/06 13:19:04;;;;;;;31.67;13.63;;;;;;;;;;4988251;28;20038;-77
2021/12/06 13:21:45;;;;;;;32.17;13.95;;;;;;;;;;4987876;28;20050;-78
2021/12/06 13:24:46;;;;;;;34.80;13.30;;;;;;;;;;4987838;28;20106;-77
2021/12/06 13:27:37;;;;;;;36.17;13.95;;;;;;;;;;4965119;28;20047;-77
2021/12/06 13:30:17;;;;;;;35.00;14.20;;;;;;;;;;4987531;28;20042;-77
2021/12/06 13:32:47;;;;;;;30.63;11.65;;;;;;;;;;4987440;28;20038;-77
2021/12/06 13:35:44;;;;;;;32.17;14.67;;;;;;;;;;4986779;28;20054;-77
2021/12/06 13:38:26;;;;;;;35.92;14.02;;;;;;;;;;4986226;28;21037;-77
2021/12/06 13:41:12;;;;;;;32.17;13.27;;;;;;;;;;4987606;28;20050;-77
2021/12/06 13:43:45;;;;;;;34.17;13.93;;;;;;;;;;4988070;28;20148;-78
2021/12/06 13:46:22;;;;;;;27.60;12.13;;;;;;;;;;4993892;28;20133;-77
2021/12/06 13:48:51;;;;;;;30.98;13.20;;;;;;;;;;4995843;28;20540;-76
2021/12/06 13:51:36;;;;;;;30.80;13.70;;;;;;;;;;4994191;28;20113;-76
2021/12/06 13:54:06;;;;;;;28.58;12.43;;;;;;;;;;4995544;28;20062;-77
2021/12/06 13:56:43;;;;;;;31.27;14.65;;;;;;;;;;4993612;28;20069;-76
2021/12/06 13:59:10;;;;;;;30.92;13.82;;;;;;;;;;4993865;28;20050;-75
2021/12/06 14:01:45;;;;;;;31.35;13.18;;;;;;;;;;4991470;28;20050;-77
2021/12/06 14:04:14;;;;;;;31.88;13.90;;;;;;;;;;4989908;28;20043;-77
2021/12/06 14:06:43;;;;;;;32.88;13.68;;;;;;;;;;4988306;28;20050;-77
2021/12/06 14:09:10;;;;;;;32.72;14.82;;;;;;;;;;4990760;28;20050;-78
2021/12/06 14:11:37;;;;;;;32.88;13.63;;;;;;;;;;4996568;28;20434;-82
2021/12/06 14:14:10;;;;;;;32.75;14.35;;;;;;;;;;5006901;28;20039;-77
2021/12/06 14:16:39;;;;;;;35.22;14.73;;;;;;;;;;5008259;28;20051;-78
2021/12/06 14:19:06;;;;;;;31.52;13.55;;;;;;;;;;4994212;28;20054;-78
2021/12/06 14:21:35;;;;;;;33.25;13.50;;;;;;;;;;4993723;28;20050;-79
2021/12/06 14:24:03;;;;;;;28.98;12.70;;;;;;;;;;4993889;28;20050;-78
2021/12/06 14:26:33;;;;;;;29.88;13.23;;;;;;;;;;4992133;28;20053;-78
2021/12/06 14:29:00;;;;;;;35.08;13.73;;;;;;;;;;4992848;28;20042;-78
2021/12/06 14:31:29;;;;;;;34.03;13.90;;;;;;;;;;4992147;28;21313;-78
2021/12/06 14:34:05;;;;;;;32.75;13.95;;;;;;;;;;4993598;28;20042;-78
2021/12/06 14:36:32;;;;;;;32.47;14.38;;;;;;;;;;4992459;28;20057;-77
2021/12/06 14:39:08;;;;;;;30.95;12.90;;;;;;;;;;4991144;28;20065;-78
2021/12/06 14:41:35;;;;;;;29.17;12.63;;;;;;;;;;5000888;28;20105;-78